sensor_id;sensor_type;location;lat;lon;timestamp;P1;P2;P0
39955;PMS5003;25631;51.516;-0.470;2024-02-04T00:02:20;8;6;
39955;PMS5003;25631;51.516;-0.470;2024-02-04T00:04:56;6;5;
39955;PMS5003;25631;51.516;-0.470;2024-02-04T00:07:33;7;5;
39955;PMS5003;25631;51.516;-0.470;2024-02-04T00:10:09;3;1;
39955;PMS5003;25631;51.516;-0.470;2024-02-04T00:12:46;3;2;
39955;PMS5003;25631;51.516;-0.470;2024-02-04T00:15:22;5;2;
39955;PMS5003;25631;51.516;-0.470;2024-02-04T00:17:59;5;2;
39955;PMS5003;25631;51.516;-0.470;2024-02-04T00:20:35;5;2;
39955;PMS5003;25631;51.516;-0.470;2024-02-04T00:23:12;4;4;
39955;PMS5003;25631;51.516;-0.470;2024-02-04T00:25:48;3;3;
39955;PMS5003;25631;51.516;-0.470;2024-02-04T00:28:25;3;3;
39955;PMS5003;25631;51.516;-0.470;2024-02-04T00:31:01;4;3;
39955;PMS5003;25631;51.516;-0.470;2024-02-04T00:33:37;7;5;
39955;PMS5003;25631;51.516;-0.470;2024-02-04T00:36:14;4;3;
39955;PMS5003;25631;51.516;-0.470;2024-02-04T00:38:50;3;3;
39955;PMS5003;25631;51.516;-0.470;2024-02-04T00:41:27;2;2;
39955;PMS5003;25631;51.516;-0.470;2024-02-04T00:44:03;3;3;
39955;PMS5003;25631;51.516;-0.470;2024-02-04T00:46:40;2;2;
39955;PMS5003;25631;51.516;-0.470;2024-02-04T00:49:16;6;3;
39955;PMS5003;25631;51.516;-0.470;2024-02-04T00:51:53;6;3;
39955;PMS5003;25631;51.516;-0.470;2024-02-04T00:54:29;4;3;
39955;PMS5003;25631;51.516;-0.470;2024-02-04T00:57:05;6;5;
39955;PMS5003;25631;51.516;-0.470;2024-02-04T00:59:42;6;5;
39955;PMS5003;25631;51.516;-0.470;2024-02-04T01:02:18;5;4;
39955;PMS5003;25631;51.516;-0.470;2024-02-04T01:04:55;6;4;
39955;PMS5003;25631;51.516;-0.470;2024-02-04T01:07:31;6;4;
39955;PMS5003;25631;51.516;-0.470;2024-02-04T01:10:08;6;5;
39955;PMS5003;25631;51.516;-0.470;2024-02-04T01:12:46;5;5;
39955;PMS5003;25631;51.516;-0.470;2024-02-04T01:15:22;5;4;
39955;PMS5003;25631;51.516;-0.470;2024-02-04T01:17:58;8;5;
39955;PMS5003;25631;51.516;-0.470;2024-02-04T01:20:35;8;5;
39955;PMS5003;25631;51.516;-0.470;2024-02-04T01:23:11;7;5;
39955;PMS5003;25631;51.516;-0.470;2024-02-04T01:25:47;5;5;
39955;PMS5003;25631;51.516;-0.470;2024-02-04T01:28:24;5;5;
39955;PMS5003;25631;51.516;-0.470;2024-02-04T01:31:00;3;3;
39955;PMS5003;25631;51.516;-0.470;2024-02-04T01:33:37;3;3;
39955;PMS5003;25631;51.516;-0.470;2024-02-04T01:36:13;2;2;
39955;PMS5003;25631;51.516;-0.470;2024-02-04T01:38:49;7;5;
39955;PMS5003;25631;51.516;-0.470;2024-02-04T01:41:26;5;3;
39955;PMS5003;25631;51.516;-0.470;2024-02-04T01:44:02;4;3;
39955;PMS5003;25631;51.516;-0.470;2024-02-04T01:46:39;4;3;
39955;PMS5003;25631;51.516;-0.470;2024-02-04T01:49:16;5;4;
39955;PMS5003;25631;51.516;-0.470;2024-02-04T01:51:52;4;2;
39955;PMS5003;25631;51.516;-0.470;2024-02-04T01:54:29;2;1;
39955;PMS5003;25631;51.516;-0.470;2024-02-04T01:57:07;6;5;
39955;PMS5003;25631;51.516;-0.470;2024-02-04T01:59:46;6;5;
39955;PMS5003;25631;51.516;-0.470;2024-02-04T02:02:25;4;4;
39955;PMS5003;25631;51.516;-0.470;2024-02-04T02:05:02;3;2;
39955;PMS5003;25631;51.516;-0.470;2024-02-04T02:07:38;3;2;
39955;PMS5003;25631;51.516;-0.470;2024-02-04T02:10:16;8;4;
39955;PMS5003;25631;51.516;-0.470;2024-02-04T02:12:55;10;3;
39955;PMS5003;25631;51.516;-0.470;2024-02-04T02:15:36;10;3;
39955;PMS5003;25631;51.516;-0.470;2024-02-04T02:18:20;3;2;
39955;PMS5003;25631;51.516;-0.470;2024-02-04T02:21:09;4;2;
39955;PMS5003;25631;51.516;-0.470;2024-02-04T02:23:58;4;3;
39955;PMS5003;25631;51.516;-0.470;2024-02-04T02:26:40;6;4;
39955;PMS5003;25631;51.516;-0.470;2024-02-04T02:29:16;5;4;
39955;PMS5003;25631;51.516;-0.470;2024-02-04T02:31:53;15;12;
39955;PMS5003;25631;51.516;-0.470;2024-02-04T02:34:29;16;14;
39955;PMS5003;25631;51.516;-0.470;2024-02-04T02:37:09;5;3;
39955;PMS5003;25631;51.516;-0.470;2024-02-04T02:39:57;7;4;
39955;PMS5003;25631;51.516;-0.470;2024-02-04T02:42:37;13;11;
39955;PMS5003;25631;51.516;-0.470;2024-02-04T02:45:17;8;5;
39955;PMS5003;25631;51.516;-0.470;2024-02-04T02:47:57;9;7;
39955;PMS5003;25631;51.516;-0.470;2024-02-04T02:50:34;8;7;
39955;PMS5003;25631;51.516;-0.470;2024-02-04T02:53:11;5;4;
39955;PMS5003;25631;51.516;-0.470;2024-02-04T02:55:48;7;5;
39955;PMS5003;25631;51.516;-0.470;2024-02-04T02:58:24;3;3;
39955;PMS5003;25631;51.516;-0.470;2024-02-04T03:01:01;3;3;
39955;PMS5003;25631;51.516;-0.470;2024-02-04T03:03:37;2;2;
39955;PMS5003;25631;51.516;-0.470;2024-02-04T03:06:14;7;5;
39955;PMS5003;25631;51.516;-0.470;2024-02-04T03:08:50;5;3;
39955;PMS5003;25631;51.516;-0.470;2024-02-04T03:11:27;5;3;
39955;PMS5003;25631;51.516;-0.470;2024-02-04T03:14:03;5;3;
39955;PMS5003;25631;51.516;-0.470;2024-02-04T03:16:40;6;4;
39955;PMS5003;25631;51.516;-0.470;2024-02-04T03:19:19;6;6;
39955;PMS5003;25631;51.516;-0.470;2024-02-04T03:21:56;6;5;
39955;PMS5003;25631;51.516;-0.470;2024-02-04T03:24:32;5;5;
39955;PMS5003;25631;51.516;-0.470;2024-02-04T03:27:08;5;5;
39955;PMS5003;25631;51.516;-0.470;2024-02-04T03:29:45;7;7;
39955;PMS5003;25631;51.516;-0.470;2024-02-04T03:32:21;1;1;
39955;PMS5003;25631;51.516;-0.470;2024-02-04T03:34:58;3;3;
39955;PMS5003;25631;51.516;-0.470;2024-02-04T03:37:34;1;1;
39955;PMS5003;25631;51.516;-0.470;2024-02-04T03:40:11;4;3;
39955;PMS5003;25631;51.516;-0.470;2024-02-04T03:42:48;3;3;
39955;PMS5003;25631;51.516;-0.470;2024-02-04T03:45:24;5;4;
39955;PMS5003;25631;51.516;-0.470;2024-02-04T03:48:00;6;4;
39955;PMS5003;25631;51.516;-0.470;2024-02-04T03:50:37;7;6;
39955;PMS5003;25631;51.516;-0.470;2024-02-04T03:53:13;4;4;
39955;PMS5003;25631;51.516;-0.470;2024-02-04T03:55:50;3;3;
39955;PMS5003;25631;51.516;-0.470;2024-02-04T03:58:26;4;4;
39955;PMS5003;25631;51.516;-0.470;2024-02-04T04:01:03;4;3;
39955;PMS5003;25631;51.516;-0.470;2024-02-04T04:03:39;4;3;
39955;PMS5003;25631;51.516;-0.470;2024-02-04T04:06:16;5;4;
39955;PMS5003;25631;51.516;-0.470;2024-02-04T04:08:52;6;4;
39955;PMS5003;25631;51.516;-0.470;2024-02-04T04:11:29;6;4;
39955;PMS5003;25631;51.516;-0.470;2024-02-04T04:14:05;7;4;
39955;PMS5003;25631;51.516;-0.470;2024-02-04T04:16:42;11;6;
39955;PMS5003;25631;51.516;-0.470;2024-02-04T04:19:18;5;3;
39955;PMS5003;25631;51.516;-0.470;2024-02-04T04:21:54;5;4;
39955;PMS5003;25631;51.516;-0.470;2024-02-04T04:24:31;4;3;
39955;PMS5003;25631;51.516;-0.470;2024-02-04T04:27:08;8;5;
39955;PMS5003;25631;51.516;-0.470;2024-02-04T04:29:45;7;4;
39955;PMS5003;25631;51.516;-0.470;2024-02-04T04:32:21;5;5;
39955;PMS5003;25631;51.516;-0.470;2024-02-04T04:34:58;6;5;
39955;PMS5003;25631;51.516;-0.470;2024-02-04T04:37:34;9;8;
39955;PMS5003;25631;51.516;-0.470;2024-02-04T04:40:11;8;5;
39955;PMS5003;25631;51.516;-0.470;2024-02-04T04:42:47;7;4;
39955;PMS5003;25631;51.516;-0.470;2024-02-04T04:45:24;7;4;
39955;PMS5003;25631;51.516;-0.470;2024-02-04T04:48:00;5;3;
39955;PMS5003;25631;51.516;-0.470;2024-02-04T04:50:37;5;4;
39955;PMS5003;25631;51.516;-0.470;2024-02-04T04:53:13;4;3;
39955;PMS5003;25631;51.516;-0.470;2024-02-04T04:55:50;3;2;
39955;PMS5003;25631;51.516;-0.470;2024-02-04T04:58:27;4;3;
39955;PMS5003;25631;51.516;-0.470;2024-02-04T05:01:04;8;5;
39955;PMS5003;25631;51.516;-0.470;2024-02-04T05:03:41;7;4;
39955;PMS5003;25631;51.516;-0.470;2024-02-04T05:06:17;5;5;
39955;PMS5003;25631;51.516;-0.470;2024-02-04T05:08:53;4;4;
39955;PMS5003;25631;51.516;-0.470;2024-02-04T05:11:30;4;4;
39955;PMS5003;25631;51.516;-0.470;2024-02-04T05:14:06;9;6;
39955;PMS5003;25631;51.516;-0.470;2024-02-04T05:16:43;9;6;
39955;PMS5003;25631;51.516;-0.470;2024-02-04T05:19:19;5;4;
39955;PMS5003;25631;51.516;-0.470;2024-02-04T05:21:56;5;4;
39955;PMS5003;25631;51.516;-0.470;2024-02-04T05:24:32;5;3;
39955;PMS5003;25631;51.516;-0.470;2024-02-04T05:27:08;4;3;
39955;PMS5003;25631;51.516;-0.470;2024-02-04T05:29:45;4;2;
39955;PMS5003;25631;51.516;-0.470;2024-02-04T05:32:21;5;3;
39955;PMS5003;25631;51.516;-0.470;2024-02-04T05:34:58;5;4;
39955;PMS5003;25631;51.516;-0.470;2024-02-04T05:37:34;5;4;
39955;PMS5003;25631;51.516;-0.470;2024-02-04T05:40:11;4;2;
39955;PMS5003;25631;51.516;-0.470;2024-02-04T05:42:48;6;4;
39955;PMS5003;25631;51.516;-0.470;2024-02-04T05:45:24;7;5;
39955;PMS5003;25631;51.516;-0.470;2024-02-04T05:48:00;6;5;
39955;PMS5003;25631;51.516;-0.470;2024-02-04T05:50:37;7;6;
39955;PMS5003;25631;51.516;-0.470;2024-02-04T05:53:13;8;6;
39955;PMS5003;25631;51.516;-0.470;2024-02-04T05:55:49;9;6;
39955;PMS5003;25631;51.516;-0.470;2024-02-04T05:58:26;10;7;
39955;PMS5003;25631;51.516;-0.470;2024-02-04T06:01:02;10;5;
39955;PMS5003;25631;51.516;-0.470;2024-02-04T06:03:39;11;5;
39955;PMS5003;25631;51.516;-0.470;2024-02-04T06:06:17;13;7;
39955;PMS5003;25631;51.516;-0.470;2024-02-04T06:08:54;7;4;
39955;PMS5003;25631;51.516;-0.470;2024-02-04T06:11:31;9;5;
39955;PMS5003;25631;51.516;-0.470;2024-02-04T06:14:07;5;5;
39955;PMS5003;25631;51.516;-0.470;2024-02-04T06:16:43;4;4;
39955;PMS5003;25631;51.516;-0.470;2024-02-04T06:19:20;4;4;
39955;PMS5003;25631;51.516;-0.470;2024-02-04T06:21:56;5;4;
39955;PMS5003;25631;51.516;-0.470;2024-02-04T06:24:32;4;3;
39955;PMS5003;25631;51.516;-0.470;2024-02-04T06:27:10;5;4;
39955;PMS5003;25631;51.516;-0.470;2024-02-04T06:29:47;4;3;
39955;PMS5003;25631;51.516;-0.470;2024-02-04T06:32:23;3;3;
39955;PMS5003;25631;51.516;-0.470;2024-02-04T06:34:59;10;5;
39955;PMS5003;25631;51.516;-0.470;2024-02-04T06:37:36;11;5;
39955;PMS5003;25631;51.516;-0.470;2024-02-04T06:40:12;7;3;
39955;PMS5003;25631;51.516;-0.470;2024-02-04T06:42:50;12;5;
39955;PMS5003;25631;51.516;-0.470;2024-02-04T06:45:26;13;5;
39955;PMS5003;25631;51.516;-0.470;2024-02-04T06:48:03;2;2;
39955;PMS5003;25631;51.516;-0.470;2024-02-04T06:50:39;1;1;
39955;PMS5003;25631;51.516;-0.470;2024-02-04T06:53:16;3;2;
39955;PMS5003;25631;51.516;-0.470;2024-02-04T06:55:52;7;5;
39955;PMS5003;25631;51.516;-0.470;2024-02-04T06:58:29;6;4;
39955;PMS5003;25631;51.516;-0.470;2024-02-04T07:01:05;8;7;
39955;PMS5003;25631;51.516;-0.470;2024-02-04T07:03:41;7;5;
39955;PMS5003;25631;51.516;-0.470;2024-02-04T07:06:18;4;2;
39955;PMS5003;25631;51.516;-0.470;2024-02-04T07:08:54;4;3;
39955;PMS5003;25631;51.516;-0.470;2024-02-04T07:11:30;4;3;
39955;PMS5003;25631;51.516;-0.470;2024-02-04T07:14:07;6;3;
39955;PMS5003;25631;51.516;-0.470;2024-02-04T07:16:43;6;4;
39955;PMS5003;25631;51.516;-0.470;2024-02-04T07:19:20;6;4;
39955;PMS5003;25631;51.516;-0.470;2024-02-04T07:21:56;10;10;
39955;PMS5003;25631;51.516;-0.470;2024-02-04T07:24:32;10;8;
39955;PMS5003;25631;51.516;-0.470;2024-02-04T07:27:09;5;4;
39955;PMS5003;25631;51.516;-0.470;2024-02-04T07:29:45;5;3;
39955;PMS5003;25631;51.516;-0.470;2024-02-04T07:32:22;5;3;
39955;PMS5003;25631;51.516;-0.470;2024-02-04T07:34:58;10;8;
39955;PMS5003;25631;51.516;-0.470;2024-02-04T07:37:35;13;9;
39955;PMS5003;25631;51.516;-0.470;2024-02-04T07:40:11;11;9;
39955;PMS5003;25631;51.516;-0.470;2024-02-04T07:42:48;5;4;
39955;PMS5003;25631;51.516;-0.470;2024-02-04T07:45:24;7;5;
39955;PMS5003;25631;51.516;-0.470;2024-02-04T07:48:01;6;3;
39955;PMS5003;25631;51.516;-0.470;2024-02-04T07:50:37;6;3;
39955;PMS5003;25631;51.516;-0.470;2024-02-04T07:53:14;6;4;
39955;PMS5003;25631;51.516;-0.470;2024-02-04T07:55:50;10;8;
39955;PMS5003;25631;51.516;-0.470;2024-02-04T07:58:27;11;9;
39955;PMS5003;25631;51.516;-0.470;2024-02-04T08:01:03;11;7;
39955;PMS5003;25631;51.516;-0.470;2024-02-04T08:03:40;11;6;
39955;PMS5003;25631;51.516;-0.470;2024-02-04T08:06:16;13;7;
39955;PMS5003;25631;51.516;-0.470;2024-02-04T08:08:53;12;10;
39955;PMS5003;25631;51.516;-0.470;2024-02-04T08:11:29;11;9;
39955;PMS5003;25631;51.516;-0.470;2024-02-04T08:14:06;9;8;
39955;PMS5003;25631;51.516;-0.470;2024-02-04T08:16:42;5;3;
39955;PMS5003;25631;51.516;-0.470;2024-02-04T08:19:19;8;4;
39955;PMS5003;25631;51.516;-0.470;2024-02-04T08:21:55;7;6;
39955;PMS5003;25631;51.516;-0.470;2024-02-04T08:24:32;8;5;
39955;PMS5003;25631;51.516;-0.470;2024-02-04T08:27:08;6;3;
39955;PMS5003;25631;51.516;-0.470;2024-02-04T08:29:45;2;2;
39955;PMS5003;25631;51.516;-0.470;2024-02-04T08:32:21;4;3;
39955;PMS5003;25631;51.516;-0.470;2024-02-04T08:34:58;8;4;
39955;PMS5003;25631;51.516;-0.470;2024-02-04T08:37:34;8;3;
39955;PMS5003;25631;51.516;-0.470;2024-02-04T08:40:11;8;4;
39955;PMS5003;25631;51.516;-0.470;2024-02-04T08:42:47;7;6;
39955;PMS5003;25631;51.516;-0.470;2024-02-04T08:45:24;5;4;
39955;PMS5003;25631;51.516;-0.470;2024-02-04T08:48:00;10;5;
39955;PMS5003;25631;51.516;-0.470;2024-02-04T08:50:37;13;6;
39955;PMS5003;25631;51.516;-0.470;2024-02-04T08:53:13;15;6;
39955;PMS5003;25631;51.516;-0.470;2024-02-04T08:55:49;6;4;
39955;PMS5003;25631;51.516;-0.470;2024-02-04T08:58:26;5;3;
39955;PMS5003;25631;51.516;-0.470;2024-02-04T09:01:02;6;4;
39955;PMS5003;25631;51.516;-0.470;2024-02-04T09:03:39;8;5;
39955;PMS5003;25631;51.516;-0.470;2024-02-04T09:06:16;8;5;
39955;PMS5003;25631;51.516;-0.470;2024-02-04T09:08:52;19;17;
39955;PMS5003;25631;51.516;-0.470;2024-02-04T09:11:29;19;17;
39955;PMS5003;25631;51.516;-0.470;2024-02-04T09:14:05;17;15;
39955;PMS5003;25631;51.516;-0.470;2024-02-04T09:16:42;15;13;
39955;PMS5003;25631;51.516;-0.470;2024-02-04T09:19:18;15;14;
39955;PMS5003;25631;51.516;-0.470;2024-02-04T09:21:54;13;9;
39955;PMS5003;25631;51.516;-0.470;2024-02-04T09:24:31;13;10;
39955;PMS5003;25631;51.516;-0.470;2024-02-04T09:27:07;12;9;
39955;PMS5003;25631;51.516;-0.470;2024-02-04T09:29:44;19;11;
39955;PMS5003;25631;51.516;-0.470;2024-02-04T09:32:20;17;11;
39955;PMS5003;25631;51.516;-0.470;2024-02-04T09:34:57;18;12;
39955;PMS5003;25631;51.516;-0.470;2024-02-04T09:37:33;14;11;
39955;PMS5003;25631;51.516;-0.470;2024-02-04T09:40:10;14;10;
39955;PMS5003;25631;51.516;-0.470;2024-02-04T09:42:48;12;8;
39955;PMS5003;25631;51.516;-0.470;2024-02-04T09:45:24;9;6;
39955;PMS5003;25631;51.516;-0.470;2024-02-04T09:48:01;9;7;
39955;PMS5003;25631;51.516;-0.470;2024-02-04T09:50:38;10;8;
39955;PMS5003;25631;51.516;-0.470;2024-02-04T09:53:15;9;8;
39955;PMS5003;25631;51.516;-0.470;2024-02-04T09:55:57;8;6;
39955;PMS5003;25631;51.516;-0.470;2024-02-04T09:58:35;7;5;
39955;PMS5003;25631;51.516;-0.470;2024-02-04T10:01:11;9;6;
39955;PMS5003;25631;51.516;-0.470;2024-02-04T10:03:48;16;8;
39955;PMS5003;25631;51.516;-0.470;2024-02-04T10:06:25;14;8;
39955;PMS5003;25631;51.516;-0.470;2024-02-04T10:09:01;8;7;
39955;PMS5003;25631;51.516;-0.470;2024-02-04T10:11:37;9;8;
39955;PMS5003;25631;51.516;-0.470;2024-02-04T10:14:15;7;6;
39955;PMS5003;25631;51.516;-0.470;2024-02-04T10:16:52;9;7;
39955;PMS5003;25631;51.516;-0.470;2024-02-04T10:19:29;9;7;
39955;PMS5003;25631;51.516;-0.470;2024-02-04T10:22:06;9;5;
39955;PMS5003;25631;51.516;-0.470;2024-02-04T10:24:42;9;6;
39955;PMS5003;25631;51.516;-0.470;2024-02-04T10:27:19;10;7;
39955;PMS5003;25631;51.516;-0.470;2024-02-04T10:29:55;27;23;
39955;PMS5003;25631;51.516;-0.470;2024-02-04T10:32:33;22;20;
39955;PMS5003;25631;51.516;-0.470;2024-02-04T10:35:10;20;18;
39955;PMS5003;25631;51.516;-0.470;2024-02-04T10:37:46;20;19;
39955;PMS5003;25631;51.516;-0.470;2024-02-04T10:40:22;22;21;
39955;PMS5003;25631;51.516;-0.470;2024-02-04T10:43:00;13;7;
39955;PMS5003;25631;51.516;-0.470;2024-02-04T10:45:40;13;8;
39955;PMS5003;25631;51.516;-0.470;2024-02-04T10:48:20;14;8;
39955;PMS5003;25631;51.516;-0.470;2024-02-04T10:51:00;9;6;
39955;PMS5003;25631;51.516;-0.470;2024-02-04T10:53:37;10;7;
39955;PMS5003;25631;51.516;-0.470;2024-02-04T10:56:18;11;6;
39955;PMS5003;25631;51.516;-0.470;2024-02-04T10:58:58;12;9;
39955;PMS5003;25631;51.516;-0.470;2024-02-04T11:01:35;14;11;
39955;PMS5003;25631;51.516;-0.470;2024-02-04T11:04:13;14;8;
39955;PMS5003;25631;51.516;-0.470;2024-02-04T11:06:52;14;8;
39955;PMS5003;25631;51.516;-0.470;2024-02-04T11:09:30;11;5;
39955;PMS5003;25631;51.516;-0.470;2024-02-04T11:12:09;9;7;
39955;PMS5003;25631;51.516;-0.470;2024-02-04T11:14:50;7;5;
39955;PMS5003;25631;51.516;-0.470;2024-02-04T11:17:38;5;4;
39955;PMS5003;25631;51.516;-0.470;2024-02-04T11:20:35;6;4;
39955;PMS5003;25631;51.516;-0.470;2024-02-04T11:23:29;6;4;
39955;PMS5003;25631;51.516;-0.470;2024-02-04T11:26:13;9;7;
39955;PMS5003;25631;51.516;-0.470;2024-02-04T11:28:51;7;6;
39955;PMS5003;25631;51.516;-0.470;2024-02-04T11:31:28;9;7;
39955;PMS5003;25631;51.516;-0.470;2024-02-04T11:34:05;8;7;
39955;PMS5003;25631;51.516;-0.470;2024-02-04T11:36:42;7;7;
39955;PMS5003;25631;51.516;-0.470;2024-02-04T11:39:18;11;6;
39955;PMS5003;25631;51.516;-0.470;2024-02-04T11:41:55;8;5;
39955;PMS5003;25631;51.516;-0.470;2024-02-04T11:44:31;9;7;
39955;PMS5003;25631;51.516;-0.470;2024-02-04T11:47:08;8;6;
39955;PMS5003;25631;51.516;-0.470;2024-02-04T11:49:44;7;6;
39955;PMS5003;25631;51.516;-0.470;2024-02-04T11:52:30;8;5;
39955;PMS5003;25631;51.516;-0.470;2024-02-04T11:55:12;8;5;
39955;PMS5003;25631;51.516;-0.470;2024-02-04T11:57:49;8;5;
39955;PMS5003;25631;51.516;-0.470;2024-02-04T12:00:25;7;5;
39955;PMS5003;25631;51.516;-0.470;2024-02-04T12:03:02;5;4;
39955;PMS5003;25631;51.516;-0.470;2024-02-04T12:05:40;9;7;
39955;PMS5003;25631;51.516;-0.470;2024-02-04T12:08:18;8;7;
39955;PMS5003;25631;51.516;-0.470;2024-02-04T12:10:55;7;6;
39955;PMS5003;25631;51.516;-0.470;2024-02-04T12:13:33;6;6;
39955;PMS5003;25631;51.516;-0.470;2024-02-04T12:16:10;5;5;
39955;PMS5003;25631;51.516;-0.470;2024-02-04T12:18:48;6;4;
39955;PMS5003;25631;51.516;-0.470;2024-02-04T12:21:24;7;5;
39955;PMS5003;25631;51.516;-0.470;2024-02-04T12:24:01;9;5;
39955;PMS5003;25631;51.516;-0.470;2024-02-04T12:26:39;13;7;
39955;PMS5003;25631;51.516;-0.470;2024-02-04T12:29:16;14;6;
39955;PMS5003;25631;51.516;-0.470;2024-02-04T12:31:57;9;7;
39955;PMS5003;25631;51.516;-0.470;2024-02-04T12:34:34;9;7;
39955;PMS5003;25631;51.516;-0.470;2024-02-04T12:37:10;7;6;
39955;PMS5003;25631;51.516;-0.470;2024-02-04T12:39:47;6;5;
39955;PMS5003;25631;51.516;-0.470;2024-02-04T12:42:23;5;4;
39955;PMS5003;25631;51.516;-0.470;2024-02-04T12:45:00;5;4;
39955;PMS5003;25631;51.516;-0.470;2024-02-04T12:47:36;6;5;
39955;PMS5003;25631;51.516;-0.470;2024-02-04T12:50:13;6;5;
39955;PMS5003;25631;51.516;-0.470;2024-02-04T12:52:50;5;3;
39955;PMS5003;25631;51.516;-0.470;2024-02-04T12:55:39;7;4;
39955;PMS5003;25631;51.516;-0.470;2024-02-04T12:58:15;7;4;
39955;PMS5003;25631;51.516;-0.470;2024-02-04T13:00:59;8;6;
39955;PMS5003;25631;51.516;-0.470;2024-02-04T13:03:36;11;9;
39955;PMS5003;25631;51.516;-0.470;2024-02-04T13:06:13;9;7;
39955;PMS5003;25631;51.516;-0.470;2024-02-04T13:08:49;8;7;
39955;PMS5003;25631;51.516;-0.470;2024-02-04T13:11:30;8;7;
39955;PMS5003;25631;51.516;-0.470;2024-02-04T13:14:07;7;3;
39955;PMS5003;25631;51.516;-0.470;2024-02-04T13:16:44;8;5;
39955;PMS5003;25631;51.516;-0.470;2024-02-04T13:19:20;5;4;
39955;PMS5003;25631;51.516;-0.470;2024-02-04T13:21:56;5;4;
39955;PMS5003;25631;51.516;-0.470;2024-02-04T13:24:33;6;4;
39955;PMS5003;25631;51.516;-0.470;2024-02-04T13:27:09;5;5;
39955;PMS5003;25631;51.516;-0.470;2024-02-04T13:29:46;4;3;
39955;PMS5003;25631;51.516;-0.470;2024-02-04T13:32:23;4;3;
39955;PMS5003;25631;51.516;-0.470;2024-02-04T13:34:59;2;2;
39955;PMS5003;25631;51.516;-0.470;2024-02-04T13:37:36;2;2;
39955;PMS5003;25631;51.516;-0.470;2024-02-04T13:40:15;7;5;
39955;PMS5003;25631;51.516;-0.470;2024-02-04T13:42:52;6;5;
39955;PMS5003;25631;51.516;-0.470;2024-02-04T13:45:28;6;4;
39955;PMS5003;25631;51.516;-0.470;2024-02-04T13:48:05;5;2;
39955;PMS5003;25631;51.516;-0.470;2024-02-04T13:50:42;7;3;
39955;PMS5003;25631;51.516;-0.470;2024-02-04T13:53:19;6;5;
39955;PMS5003;25631;51.516;-0.470;2024-02-04T13:55:55;8;6;
39955;PMS5003;25631;51.516;-0.470;2024-02-04T13:58:32;7;6;
39955;PMS5003;25631;51.516;-0.470;2024-02-04T14:01:08;4;3;
39955;PMS5003;25631;51.516;-0.470;2024-02-04T14:03:45;4;2;
39955;PMS5003;25631;51.516;-0.470;2024-02-04T14:06:21;4;2;
39955;PMS5003;25631;51.516;-0.470;2024-02-04T14:08:58;9;9;
39955;PMS5003;25631;51.516;-0.470;2024-02-04T14:11:34;11;11;
39955;PMS5003;25631;51.516;-0.470;2024-02-04T14:14:11;6;6;
39955;PMS5003;25631;51.516;-0.470;2024-02-04T14:16:47;8;6;
39955;PMS5003;25631;51.516;-0.470;2024-02-04T14:19:24;9;6;
39955;PMS5003;25631;51.516;-0.470;2024-02-04T14:22:00;3;2;
39955;PMS5003;25631;51.516;-0.470;2024-02-04T14:24:37;3;2;
39955;PMS5003;25631;51.516;-0.470;2024-02-04T14:27:13;4;3;
39955;PMS5003;25631;51.516;-0.470;2024-02-04T14:29:49;3;3;
39955;PMS5003;25631;51.516;-0.470;2024-02-04T14:32:26;3;3;
39955;PMS5003;25631;51.516;-0.470;2024-02-04T14:35:02;5;2;
39955;PMS5003;25631;51.516;-0.470;2024-02-04T14:37:39;4;2;
39955;PMS5003;25631;51.516;-0.470;2024-02-04T14:40:16;5;3;
39955;PMS5003;25631;51.516;-0.470;2024-02-04T14:42:53;5;3;
39955;PMS5003;25631;51.516;-0.470;2024-02-04T14:45:29;4;2;
39955;PMS5003;25631;51.516;-0.470;2024-02-04T14:48:06;2;1;
39955;PMS5003;25631;51.516;-0.470;2024-02-04T14:50:43;2;2;
39955;PMS5003;25631;51.516;-0.470;2024-02-04T14:53:20;6;5;
39955;PMS5003;25631;51.516;-0.470;2024-02-04T14:55:56;5;4;
39955;PMS5003;25631;51.516;-0.470;2024-02-04T14:58:32;4;4;
39955;PMS5003;25631;51.516;-0.470;2024-02-04T15:01:09;2;2;
39955;PMS5003;25631;51.516;-0.470;2024-02-04T15:03:45;2;2;
39955;PMS5003;25631;51.516;-0.470;2024-02-04T15:06:22;3;3;
39955;PMS5003;25631;51.516;-0.470;2024-02-04T15:08:58;4;3;
39955;PMS5003;25631;51.516;-0.470;2024-02-04T15:11:35;5;4;
39955;PMS5003;25631;51.516;-0.470;2024-02-04T15:14:12;3;3;
39955;PMS5003;25631;51.516;-0.470;2024-02-04T15:16:49;4;3;
39955;PMS5003;25631;51.516;-0.470;2024-02-04T15:19:26;6;3;
39955;PMS5003;25631;51.516;-0.470;2024-02-04T15:22:03;5;4;
39955;PMS5003;25631;51.516;-0.470;2024-02-04T15:24:40;5;4;
39955;PMS5003;25631;51.516;-0.470;2024-02-04T15:27:17;5;3;
39955;PMS5003;25631;51.516;-0.470;2024-02-04T15:29:55;5;3;
39955;PMS5003;25631;51.516;-0.470;2024-02-04T15:32:32;5;3;
39955;PMS5003;25631;51.516;-0.470;2024-02-04T15:35:09;3;3;
39955;PMS5003;25631;51.516;-0.470;2024-02-04T15:37:47;2;2;
39955;PMS5003;25631;51.516;-0.470;2024-02-04T15:40:23;4;4;
39955;PMS5003;25631;51.516;-0.470;2024-02-04T15:43:00;2;1;
39955;PMS5003;25631;51.516;-0.470;2024-02-04T15:45:36;0;0;
39955;PMS5003;25631;51.516;-0.470;2024-02-04T15:48:13;3;1;
39955;PMS5003;25631;51.516;-0.470;2024-02-04T15:50:53;2;2;
39955;PMS5003;25631;51.516;-0.470;2024-02-04T15:53:31;4;2;
39955;PMS5003;25631;51.516;-0.470;2024-02-04T15:56:08;3;3;
39955;PMS5003;25631;51.516;-0.470;2024-02-04T15:58:47;2;2;
39955;PMS5003;25631;51.516;-0.470;2024-02-04T16:01:32;1;1;
39955;PMS5003;25631;51.516;-0.470;2024-02-04T16:04:10;1;0;
39955;PMS5003;25631;51.516;-0.470;2024-02-04T16:06:47;2;2;
39955;PMS5003;25631;51.516;-0.470;2024-02-04T16:09:24;1;0;
39955;PMS5003;25631;51.516;-0.470;2024-02-04T16:12:04;2;2;
39955;PMS5003;25631;51.516;-0.470;2024-02-04T16:14:44;2;1;
39955;PMS5003;25631;51.516;-0.470;2024-02-04T16:17:21;1;1;
39955;PMS5003;25631;51.516;-0.470;2024-02-04T16:19:58;1;1;
39955;PMS5003;25631;51.516;-0.470;2024-02-04T16:22:35;1;1;
39955;PMS5003;25631;51.516;-0.470;2024-02-04T16:25:12;1;1;
39955;PMS5003;25631;51.516;-0.470;2024-02-04T16:27:52;1;1;
39955;PMS5003;25631;51.516;-0.470;2024-02-04T16:30:28;0;0;
39955;PMS5003;25631;51.516;-0.470;2024-02-04T16:33:05;0;0;
39955;PMS5003;25631;51.516;-0.470;2024-02-04T16:35:41;4;3;
39955;PMS5003;25631;51.516;-0.470;2024-02-04T16:38:17;3;2;
39955;PMS5003;25631;51.516;-0.470;2024-02-04T16:40:54;4;2;
39955;PMS5003;25631;51.516;-0.470;2024-02-04T16:43:30;3;2;
39955;PMS5003;25631;51.516;-0.470;2024-02-04T16:46:07;1;1;
39955;PMS5003;25631;51.516;-0.470;2024-02-04T16:48:43;6;5;
39955;PMS5003;25631;51.516;-0.470;2024-02-04T16:51:20;5;5;
39955;PMS5003;25631;51.516;-0.470;2024-02-04T16:53:56;6;6;
39955;PMS5003;25631;51.516;-0.470;2024-02-04T16:56:32;1;0;
39955;PMS5003;25631;51.516;-0.470;2024-02-04T16:59:09;1;0;
39955;PMS5003;25631;51.516;-0.470;2024-02-04T17:01:46;0;0;
39955;PMS5003;25631;51.516;-0.470;2024-02-04T17:04:23;1;1;
39955;PMS5003;25631;51.516;-0.470;2024-02-04T17:07:00;0;0;
39955;PMS5003;25631;51.516;-0.470;2024-02-04T17:09:37;0;0;
39955;PMS5003;25631;51.516;-0.470;2024-02-04T17:12:14;0;0;
39955;PMS5003;25631;51.516;-0.470;2024-02-04T17:14:52;1;0;
39955;PMS5003;25631;51.516;-0.470;2024-02-04T17:17:29;0;0;
39955;PMS5003;25631;51.516;-0.470;2024-02-04T17:20:08;0;0;
39955;PMS5003;25631;51.516;-0.470;2024-02-04T17:22:46;1;0;
39955;PMS5003;25631;51.516;-0.470;2024-02-04T17:25:23;0;0;
39955;PMS5003;25631;51.516;-0.470;2024-02-04T17:28:06;0;0;
39955;PMS5003;25631;51.516;-0.470;2024-02-04T17:30:45;0;0;
39955;PMS5003;25631;51.516;-0.470;2024-02-04T17:33:22;1;1;
39955;PMS5003;25631;51.516;-0.470;2024-02-04T17:35:59;4;4;
39955;PMS5003;25631;51.516;-0.470;2024-02-04T17:38:36;4;4;